Terminal Aerodrome Forecast
Issued by NWS Twin Cities, MN

Home | Current Version | Previous Version | Text Only | Print | Product List | Glossary Off
Versions: 1 2 3 4 5 6 7 8 9 10 11 12 13 14

722
FTUS43 KMPX 181122
TAFEAU
TAF
KEAU 181122Z 1812/1912 10008KT P6SM FEW150
     FM181500 13009KT P6SM FEW250
     FM182100 14014G21KT P6SM SCT250
     FM190100 14009KT P6SM SCT250=

USA.gov is the U.S. government's official web portal to all federal, state and local government web resources and services.